sensor_id;sensor_type;location;lat;lon;timestamp;pressure;altitude;pressure_sealevel;temperature;humidity
63306;BME280;50735;52.060;1.248;2023-07-29T00:00:17;100269.09;;;17.04;53.23
63306;BME280;50735;52.060;1.248;2023-07-29T00:02:49;100270.48;;;17.00;53.31
63306;BME280;50735;52.060;1.248;2023-07-29T00:05:21;100266.79;;;16.89;53.77
63306;BME280;50735;52.060;1.248;2023-07-29T00:07:52;100262.22;;;16.92;53.64
63306;BME280;50735;52.060;1.248;2023-07-29T00:10:25;100259.25;;;16.80;53.91
63306;BME280;50735;52.060;1.248;2023-07-29T00:12:57;100263.57;;;16.78;53.96
63306;BME280;50735;52.060;1.248;2023-07-29T00:15:29;100264.55;;;16.88;53.71
63306;BME280;50735;52.060;1.248;2023-07-29T00:18:00;100256.98;;;16.90;53.84
63306;BME280;50735;52.060;1.248;2023-07-29T00:20:32;100257.36;;;16.91;53.67
63306;BME280;50735;52.060;1.248;2023-07-29T00:23:04;100254.44;;;16.88;53.58
63306;BME280;50735;52.060;1.248;2023-07-29T00:25:35;100252.20;;;16.87;54.14
63306;BME280;50735;52.060;1.248;2023-07-29T00:28:07;100252.87;;;16.65;53.89
63306;BME280;50735;52.060;1.248;2023-07-29T00:30:39;100251.81;;;16.91;53.84
63306;BME280;50735;52.060;1.248;2023-07-29T00:33:11;100249.61;;;16.87;54.26
63306;BME280;50735;52.060;1.248;2023-07-29T00:35:42;100252.41;;;16.75;54.31
63306;BME280;50735;52.060;1.248;2023-07-29T00:38:14;100243.70;;;16.79;54.26
63306;BME280;50735;52.060;1.248;2023-07-29T00:40:46;100243.99;;;16.62;54.22
63306;BME280;50735;52.060;1.248;2023-07-29T00:43:18;100241.87;;;16.79;54.05
63306;BME280;50735;52.060;1.248;2023-07-29T00:45:49;100240.17;;;16.51;54.36
63306;BME280;50735;52.060;1.248;2023-07-29T00:48:21;100239.75;;;16.76;54.06
63306;BME280;50735;52.060;1.248;2023-07-29T00:50:54;100242.04;;;16.80;54.36
63306;BME280;50735;52.060;1.248;2023-07-29T00:53:26;100243.32;;;16.86;53.97
63306;BME280;50735;52.060;1.248;2023-07-29T00:55:57;100235.73;;;16.80;54.20
63306;BME280;50735;52.060;1.248;2023-07-29T00:58:29;100236.81;;;16.84;54.38
63306;BME280;50735;52.060;1.248;2023-07-29T01:01:01;100238.12;;;16.85;54.21
63306;BME280;50735;52.060;1.248;2023-07-29T01:03:33;100235.24;;;16.71;54.03
63306;BME280;50735;52.060;1.248;2023-07-29T01:06:13;100235.42;;;16.94;54.12
63306;BME280;50735;52.060;1.248;2023-07-29T01:08:55;100235.10;;;16.92;54.09
63306;BME280;50735;52.060;1.248;2023-07-29T01:11:35;100240.99;;;16.84;54.31
63306;BME280;50735;52.060;1.248;2023-07-29T01:14:18;100241.96;;;16.77;54.64
63306;BME280;50735;52.060;1.248;2023-07-29T01:16:56;100244.43;;;16.55;54.96
63306;BME280;50735;52.060;1.248;2023-07-29T01:19:42;100241.11;;;16.73;55.11
63306;BME280;50735;52.060;1.248;2023-07-29T01:22:16;100243.62;;;16.70;55.01
63306;BME280;50735;52.060;1.248;2023-07-29T01:24:48;100241.53;;;16.65;55.28
63306;BME280;50735;52.060;1.248;2023-07-29T01:27:20;100239.90;;;16.65;55.28
63306;BME280;50735;52.060;1.248;2023-07-29T01:29:53;100238.74;;;16.60;55.52
63306;BME280;50735;52.060;1.248;2023-07-29T01:32:30;100236.92;;;16.74;55.66
63306;BME280;50735;52.060;1.248;2023-07-29T01:35:17;100229.63;;;16.82;55.04
63306;BME280;50735;52.060;1.248;2023-07-29T01:37:55;100226.25;;;16.88;55.24
63306;BME280;50735;52.060;1.248;2023-07-29T01:40:27;100224.44;;;16.76;54.93
63306;BME280;50735;52.060;1.248;2023-07-29T01:43:00;100228.58;;;16.96;55.33
63306;BME280;50735;52.060;1.248;2023-07-29T01:45:31;100228.96;;;16.83;55.45
63306;BME280;50735;52.060;1.248;2023-07-29T01:48:04;100225.08;;;16.82;55.53
63306;BME280;50735;52.060;1.248;2023-07-29T01:50:36;100229.35;;;16.78;55.51
63306;BME280;50735;52.060;1.248;2023-07-29T01:53:07;100230.13;;;16.74;55.85
63306;BME280;50735;52.060;1.248;2023-07-29T01:55:40;100224.97;;;16.82;55.70
63306;BME280;50735;52.060;1.248;2023-07-29T01:58:12;100223.56;;;16.89;55.48
63306;BME280;50735;52.060;1.248;2023-07-29T02:00:44;100221.35;;;16.94;55.50
63306;BME280;50735;52.060;1.248;2023-07-29T02:03:15;100222.04;;;16.98;55.20
63306;BME280;50735;52.060;1.248;2023-07-29T02:05:47;100220.27;;;16.97;55.31
63306;BME280;50735;52.060;1.248;2023-07-29T02:08:19;100217.66;;;16.97;55.34
63306;BME280;50735;52.060;1.248;2023-07-29T02:10:50;100222.61;;;16.96;55.50
63306;BME280;50735;52.060;1.248;2023-07-29T02:13:22;100220.72;;;16.91;55.93
63306;BME280;50735;52.060;1.248;2023-07-29T02:15:54;100217.90;;;16.80;55.89
63306;BME280;50735;52.060;1.248;2023-07-29T02:18:26;100223.44;;;16.80;55.83
63306;BME280;50735;52.060;1.248;2023-07-29T02:20:57;100227.47;;;16.64;56.44
63306;BME280;50735;52.060;1.248;2023-07-29T02:23:29;100224.71;;;16.81;56.59
63306;BME280;50735;52.060;1.248;2023-07-29T02:26:01;100220.52;;;16.38;56.92
63306;BME280;50735;52.060;1.248;2023-07-29T02:28:33;100223.32;;;16.58;57.13
63306;BME280;50735;52.060;1.248;2023-07-29T02:31:15;100217.33;;;16.26;57.76
63306;BME280;50735;52.060;1.248;2023-07-29T02:33:48;100214.47;;;16.21;57.92
63306;BME280;50735;52.060;1.248;2023-07-29T02:36:19;100216.29;;;16.27;57.90
63306;BME280;50735;52.060;1.248;2023-07-29T02:38:51;100217.85;;;16.35;57.75
63306;BME280;50735;52.060;1.248;2023-07-29T02:41:23;100217.94;;;16.37;58.05
63306;BME280;50735;52.060;1.248;2023-07-29T02:43:55;100209.46;;;15.23;58.09
63306;BME280;50735;52.060;1.248;2023-07-29T02:46:28;100209.32;;;15.05;58.32
63306;BME280;50735;52.060;1.248;2023-07-29T02:49:02;100204.67;;;14.98;57.83
63306;BME280;50735;52.060;1.248;2023-07-29T02:51:35;100203.28;;;14.96;57.93
63306;BME280;50735;52.060;1.248;2023-07-29T02:54:07;100205.59;;;14.98;58.06
63306;BME280;50735;52.060;1.248;2023-07-29T02:56:40;100206.67;;;14.99;57.65
63306;BME280;50735;52.060;1.248;2023-07-29T02:59:12;100212.80;;;15.87;57.41
63306;BME280;50735;52.060;1.248;2023-07-29T03:01:44;100215.26;;;16.59;57.26
63306;BME280;50735;52.060;1.248;2023-07-29T03:04:15;100210.41;;;16.79;57.27
63306;BME280;50735;52.060;1.248;2023-07-29T03:06:47;100202.29;;;16.85;56.99
63306;BME280;50735;52.060;1.248;2023-07-29T03:09:19;100206.52;;;16.85;57.18
63306;BME280;50735;52.060;1.248;2023-07-29T03:11:51;100202.42;;;16.87;57.70
63306;BME280;50735;52.060;1.248;2023-07-29T03:14:22;100202.91;;;16.75;58.17
63306;BME280;50735;52.060;1.248;2023-07-29T03:16:54;100202.82;;;16.71;58.06
63306;BME280;50735;52.060;1.248;2023-07-29T03:19:26;100201.84;;;16.56;58.12
63306;BME280;50735;52.060;1.248;2023-07-29T03:21:58;100210.64;;;16.66;58.51
63306;BME280;50735;52.060;1.248;2023-07-29T03:24:29;100212.61;;;16.38;59.23
63306;BME280;50735;52.060;1.248;2023-07-29T03:27:01;100218.09;;;16.44;59.18
63306;BME280;50735;52.060;1.248;2023-07-29T03:29:34;100215.10;;;16.49;59.01
63306;BME280;50735;52.060;1.248;2023-07-29T03:32:06;100217.17;;;16.43;59.49
63306;BME280;50735;52.060;1.248;2023-07-29T03:34:38;100221.05;;;16.40;59.40
63306;BME280;50735;52.060;1.248;2023-07-29T03:37:10;100222.72;;;16.52;59.11
63306;BME280;50735;52.060;1.248;2023-07-29T03:39:42;100223.28;;;16.44;59.44
63306;BME280;50735;52.060;1.248;2023-07-29T03:42:13;100222.02;;;16.29;59.41
63306;BME280;50735;52.060;1.248;2023-07-29T03:44:45;100213.92;;;16.09;60.09
63306;BME280;50735;52.060;1.248;2023-07-29T03:47:17;100214.94;;;16.27;60.07
63306;BME280;50735;52.060;1.248;2023-07-29T03:49:49;100214.18;;;15.81;60.29
63306;BME280;50735;52.060;1.248;2023-07-29T03:52:21;100212.92;;;15.79;60.66
63306;BME280;50735;52.060;1.248;2023-07-29T03:54:53;100206.24;;;15.85;60.49
63306;BME280;50735;52.060;1.248;2023-07-29T03:57:25;100211.57;;;15.99;59.92
63306;BME280;50735;52.060;1.248;2023-07-29T03:59:57;100211.68;;;16.06;59.41
63306;BME280;50735;52.060;1.248;2023-07-29T04:02:28;100214.37;;;16.39;59.36
63306;BME280;50735;52.060;1.248;2023-07-29T04:05:00;100218.21;;;16.54;59.15
63306;BME280;50735;52.060;1.248;2023-07-29T04:07:32;100212.52;;;16.77;58.91
63306;BME280;50735;52.060;1.248;2023-07-29T04:10:06;100223.15;;;16.61;58.73
63306;BME280;50735;52.060;1.248;2023-07-29T04:12:38;100226.12;;;16.32;58.73
63306;BME280;50735;52.060;1.248;2023-07-29T04:15:10;100240.50;;;16.25;58.71
63306;BME280;50735;52.060;1.248;2023-07-29T04:17:41;100245.05;;;16.22;58.82
63306;BME280;50735;52.060;1.248;2023-07-29T04:20:13;100246.42;;;16.27;58.73
63306;BME280;50735;52.060;1.248;2023-07-29T04:22:45;100248.60;;;15.98;58.78
63306;BME280;50735;52.060;1.248;2023-07-29T04:25:17;100250.78;;;15.87;58.82
63306;BME280;50735;52.060;1.248;2023-07-29T04:27:49;100247.38;;;15.93;59.23
63306;BME280;50735;52.060;1.248;2023-07-29T04:30:20;100240.04;;;15.77;58.95
63306;BME280;50735;52.060;1.248;2023-07-29T04:32:52;100250.41;;;15.80;58.70
63306;BME280;50735;52.060;1.248;2023-07-29T04:35:24;100248.80;;;16.17;58.60
63306;BME280;50735;52.060;1.248;2023-07-29T04:37:56;100251.09;;;15.95;58.77
63306;BME280;50735;52.060;1.248;2023-07-29T04:40:27;100238.78;;;15.78;58.73
63306;BME280;50735;52.060;1.248;2023-07-29T04:43:00;100226.07;;;15.71;58.32
63306;BME280;50735;52.060;1.248;2023-07-29T04:45:32;100230.75;;;15.66;57.91
63306;BME280;50735;52.060;1.248;2023-07-29T04:48:04;100240.98;;;15.79;58.11
63306;BME280;50735;52.060;1.248;2023-07-29T04:50:35;100249.82;;;15.83;58.07
63306;BME280;50735;52.060;1.248;2023-07-29T04:53:08;100244.95;;;15.88;57.75
63306;BME280;50735;52.060;1.248;2023-07-29T04:55:41;100241.29;;;16.35;57.34
63306;BME280;50735;52.060;1.248;2023-07-29T04:58:13;100243.59;;;15.94;57.77
63306;BME280;50735;52.060;1.248;2023-07-29T05:00:46;100240.24;;;15.96;57.91
63306;BME280;50735;52.060;1.248;2023-07-29T05:03:18;100239.00;;;16.35;57.95
63306;BME280;50735;52.060;1.248;2023-07-29T05:05:50;100234.81;;;16.03;57.90
63306;BME280;50735;52.060;1.248;2023-07-29T05:08:22;100237.34;;;15.93;58.34
63306;BME280;50735;52.060;1.248;2023-07-29T05:10:54;100243.55;;;16.28;58.50
63306;BME280;50735;52.060;1.248;2023-07-29T05:13:26;100246.54;;;16.05;59.13
63306;BME280;50735;52.060;1.248;2023-07-29T05:15:58;100251.42;;;16.10;59.08
63306;BME280;50735;52.060;1.248;2023-07-29T05:18:30;100253.91;;;14.74;59.10
63306;BME280;50735;52.060;1.248;2023-07-29T05:21:03;100259.38;;;14.61;58.96
63306;BME280;50735;52.060;1.248;2023-07-29T05:23:36;100258.66;;;14.71;58.80
63306;BME280;50735;52.060;1.248;2023-07-29T05:26:08;100259.82;;;14.42;58.60
63306;BME280;50735;52.060;1.248;2023-07-29T05:28:41;100259.16;;;14.50;58.55
63306;BME280;50735;52.060;1.248;2023-07-29T05:31:13;100257.19;;;14.67;58.67
63306;BME280;50735;52.060;1.248;2023-07-29T05:33:46;100252.13;;;14.60;58.31
63306;BME280;50735;52.060;1.248;2023-07-29T05:36:19;100253.62;;;14.65;58.27
63306;BME280;50735;52.060;1.248;2023-07-29T05:38:52;100253.94;;;14.73;58.27
63306;BME280;50735;52.060;1.248;2023-07-29T05:41:24;100251.78;;;14.83;57.71
63306;BME280;50735;52.060;1.248;2023-07-29T05:43:57;100250.84;;;14.91;57.86
63306;BME280;50735;52.060;1.248;2023-07-29T05:46:29;100249.58;;;16.12;57.33
63306;BME280;50735;52.060;1.248;2023-07-29T05:49:01;100247.47;;;16.42;57.11
63306;BME280;50735;52.060;1.248;2023-07-29T05:51:33;100251.62;;;16.46;57.36
63306;BME280;50735;52.060;1.248;2023-07-29T05:54:05;100251.26;;;16.52;57.37
63306;BME280;50735;52.060;1.248;2023-07-29T05:56:36;100244.74;;;16.81;57.04
63306;BME280;50735;52.060;1.248;2023-07-29T05:59:08;100240.16;;;16.83;57.07
63306;BME280;50735;52.060;1.248;2023-07-29T06:01:40;100240.67;;;16.87;56.89
63306;BME280;50735;52.060;1.248;2023-07-29T06:04:12;100234.91;;;16.89;56.72
63306;BME280;50735;52.060;1.248;2023-07-29T06:06:44;100238.86;;;16.85;56.83
63306;BME280;50735;52.060;1.248;2023-07-29T06:09:15;100247.30;;;16.83;57.08
63306;BME280;50735;52.060;1.248;2023-07-29T06:11:47;100249.06;;;16.86;56.98
63306;BME280;50735;52.060;1.248;2023-07-29T06:14:19;100247.75;;;16.84;56.98
63306;BME280;50735;52.060;1.248;2023-07-29T06:16:51;100242.97;;;16.82;57.22
63306;BME280;50735;52.060;1.248;2023-07-29T06:19:22;100245.64;;;16.67;57.22
63306;BME280;50735;52.060;1.248;2023-07-29T06:21:55;100253.35;;;16.63;57.52
63306;BME280;50735;52.060;1.248;2023-07-29T06:24:27;100255.04;;;16.41;57.83
63306;BME280;50735;52.060;1.248;2023-07-29T06:26:59;100254.66;;;16.43;57.97
63306;BME280;50735;52.060;1.248;2023-07-29T06:29:31;100259.29;;;16.45;57.81
63306;BME280;50735;52.060;1.248;2023-07-29T06:32:03;100269.11;;;16.19;57.77
63306;BME280;50735;52.060;1.248;2023-07-29T06:34:35;100265.98;;;16.21;58.50
63306;BME280;50735;52.060;1.248;2023-07-29T06:37:06;100267.76;;;15.92;58.82
63306;BME280;50735;52.060;1.248;2023-07-29T06:39:38;100278.34;;;15.88;58.66
63306;BME280;50735;52.060;1.248;2023-07-29T06:42:10;100274.05;;;15.82;58.63
63306;BME280;50735;52.060;1.248;2023-07-29T06:44:42;100271.19;;;15.94;58.56
63306;BME280;50735;52.060;1.248;2023-07-29T06:47:13;100275.43;;;16.12;58.25
63306;BME280;50735;52.060;1.248;2023-07-29T06:49:46;100278.45;;;16.11;58.27
63306;BME280;50735;52.060;1.248;2023-07-29T06:52:18;100275.10;;;15.98;58.74
63306;BME280;50735;52.060;1.248;2023-07-29T06:54:50;100277.61;;;15.97;58.85
63306;BME280;50735;52.060;1.248;2023-07-29T06:57:21;100276.44;;;16.04;58.95
63306;BME280;50735;52.060;1.248;2023-07-29T06:59:53;100270.30;;;16.23;58.28
63306;BME280;50735;52.060;1.248;2023-07-29T07:02:25;100271.39;;;16.10;57.88
63306;BME280;50735;52.060;1.248;2023-07-29T07:04:57;100274.58;;;16.10;58.32
63306;BME280;50735;52.060;1.248;2023-07-29T07:07:29;100280.32;;;16.02;58.43
63306;BME280;50735;52.060;1.248;2023-07-29T07:10:00;100279.72;;;16.43;58.04
63306;BME280;50735;52.060;1.248;2023-07-29T07:12:32;100285.03;;;16.27;58.10
63306;BME280;50735;52.060;1.248;2023-07-29T07:15:05;100286.35;;;16.33;57.94
63306;BME280;50735;52.060;1.248;2023-07-29T07:17:36;100283.64;;;15.86;58.36
63306;BME280;50735;52.060;1.248;2023-07-29T07:20:09;100283.01;;;15.84;58.07
63306;BME280;50735;52.060;1.248;2023-07-29T07:22:41;100281.08;;;16.27;58.11
63306;BME280;50735;52.060;1.248;2023-07-29T07:25:13;100277.50;;;16.33;58.94
63306;BME280;50735;52.060;1.248;2023-07-29T07:27:45;100277.75;;;16.43;57.86
63306;BME280;50735;52.060;1.248;2023-07-29T07:30:17;100280.40;;;16.44;57.68
63306;BME280;50735;52.060;1.248;2023-07-29T07:32:48;100282.10;;;16.43;56.82
63306;BME280;50735;52.060;1.248;2023-07-29T07:35:20;100278.44;;;16.32;57.60
63306;BME280;50735;52.060;1.248;2023-07-29T07:37:52;100283.87;;;16.66;56.92
63306;BME280;50735;52.060;1.248;2023-07-29T07:40:24;100287.00;;;16.66;57.73
63306;BME280;50735;52.060;1.248;2023-07-29T07:42:55;100287.51;;;16.84;56.34
63306;BME280;50735;52.060;1.248;2023-07-29T07:45:28;100287.45;;;16.61;56.23
63306;BME280;50735;52.060;1.248;2023-07-29T07:47:59;100291.00;;;16.65;56.29
63306;BME280;50735;52.060;1.248;2023-07-29T07:50:31;100285.93;;;16.39;56.33
63306;BME280;50735;52.060;1.248;2023-07-29T07:53:03;100285.83;;;16.66;56.79
63306;BME280;50735;52.060;1.248;2023-07-29T07:55:35;100285.00;;;16.81;56.01
63306;BME280;50735;52.060;1.248;2023-07-29T07:58:06;100286.22;;;16.77;56.52
63306;BME280;50735;52.060;1.248;2023-07-29T08:00:38;100286.08;;;16.90;55.25
63306;BME280;50735;52.060;1.248;2023-07-29T08:03:10;100281.96;;;16.84;55.08
63306;BME280;50735;52.060;1.248;2023-07-29T08:05:42;100280.40;;;17.14;54.17
63306;BME280;50735;52.060;1.248;2023-07-29T08:08:14;100281.58;;;17.36;54.78
63306;BME280;50735;52.060;1.248;2023-07-29T08:10:46;100284.21;;;17.42;54.98
63306;BME280;50735;52.060;1.248;2023-07-29T08:13:17;100284.02;;;17.67;54.23
63306;BME280;50735;52.060;1.248;2023-07-29T08:15:50;100287.25;;;17.63;53.36
63306;BME280;50735;52.060;1.248;2023-07-29T08:18:22;100283.49;;;17.59;53.21
63306;BME280;50735;52.060;1.248;2023-07-29T08:20:54;100286.49;;;17.65;53.51
63306;BME280;50735;52.060;1.248;2023-07-29T08:23:27;100285.87;;;17.52;52.77
63306;BME280;50735;52.060;1.248;2023-07-29T08:26:03;100281.41;;;17.64;52.65
63306;BME280;50735;52.060;1.248;2023-07-29T08:28:36;100273.49;;;17.97;51.90
63306;BME280;50735;52.060;1.248;2023-07-29T08:31:08;100275.87;;;18.06;51.30
63306;BME280;50735;52.060;1.248;2023-07-29T08:33:40;100271.34;;;18.23;51.04
63306;BME280;50735;52.060;1.248;2023-07-29T08:36:11;100270.51;;;17.97;51.07
63306;BME280;50735;52.060;1.248;2023-07-29T08:38:43;100267.81;;;18.22;50.16
63306;BME280;50735;52.060;1.248;2023-07-29T08:41:19;100267.45;;;18.28;50.52
63306;BME280;50735;52.060;1.248;2023-07-29T08:43:56;100265.30;;;18.34;50.49
63306;BME280;50735;52.060;1.248;2023-07-29T08:46:31;100264.81;;;18.52;49.35
63306;BME280;50735;52.060;1.248;2023-07-29T08:49:05;100262.77;;;18.82;49.04
63306;BME280;50735;52.060;1.248;2023-07-29T08:51:37;100257.58;;;19.22;48.89
63306;BME280;50735;52.060;1.248;2023-07-29T08:54:10;100262.06;;;18.77;46.79
63306;BME280;50735;52.060;1.248;2023-07-29T08:56:43;100265.41;;;19.25;46.88
63306;BME280;50735;52.060;1.248;2023-07-29T08:59:15;100259.55;;;18.53;47.75
63306;BME280;50735;52.060;1.248;2023-07-29T09:01:49;100268.55;;;18.74;47.60
63306;BME280;50735;52.060;1.248;2023-07-29T09:04:20;100269.68;;;18.82;47.68
63306;BME280;50735;52.060;1.248;2023-07-29T09:06:53;100266.95;;;18.70;47.10
63306;BME280;50735;52.060;1.248;2023-07-29T09:09:27;100265.21;;;18.51;47.89
63306;BME280;50735;52.060;1.248;2023-07-29T09:11:59;100259.29;;;18.49;48.42
63306;BME280;50735;52.060;1.248;2023-07-29T09:14:31;100261.31;;;18.48;48.43
63306;BME280;50735;52.060;1.248;2023-07-29T09:17:06;100260.74;;;18.54;48.22
63306;BME280;50735;52.060;1.248;2023-07-29T09:19:38;100254.79;;;18.63;48.09
63306;BME280;50735;52.060;1.248;2023-07-29T09:22:17;100254.38;;;18.33;48.02
63306;BME280;50735;52.060;1.248;2023-07-29T09:24:49;100252.98;;;18.76;48.42
63306;BME280;50735;52.060;1.248;2023-07-29T09:27:25;100251.50;;;19.20;47.10
63306;BME280;50735;52.060;1.248;2023-07-29T09:29:57;100247.64;;;19.58;45.56
63306;BME280;50735;52.060;1.248;2023-07-29T09:32:29;100250.54;;;19.58;45.58
63306;BME280;50735;52.060;1.248;2023-07-29T09:35:01;100245.61;;;19.89;45.28
63306;BME280;50735;52.060;1.248;2023-07-29T09:37:33;100254.33;;;19.65;44.83
63306;BME280;50735;52.060;1.248;2023-07-29T09:40:07;100243.21;;;20.14;44.29
63306;BME280;50735;52.060;1.248;2023-07-29T09:42:49;100244.10;;;20.46;43.83
63306;BME280;50735;52.060;1.248;2023-07-29T09:45:21;100245.87;;;20.48;43.26
63306;BME280;50735;52.060;1.248;2023-07-29T09:47:56;100246.20;;;20.69;43.27
63306;BME280;50735;52.060;1.248;2023-07-29T09:50:29;100243.96;;;21.02;41.83
63306;BME280;50735;52.060;1.248;2023-07-29T09:53:02;100242.05;;;20.64;42.37
63306;BME280;50735;52.060;1.248;2023-07-29T09:55:34;100240.48;;;20.87;42.44
63306;BME280;50735;52.060;1.248;2023-07-29T09:58:06;100240.88;;;20.44;42.63
63306;BME280;50735;52.060;1.248;2023-07-29T10:00:38;100236.67;;;20.46;42.81
63306;BME280;50735;52.060;1.248;2023-07-29T10:03:11;100235.51;;;19.97;43.60
63306;BME280;50735;52.060;1.248;2023-07-29T10:05:45;100239.92;;;20.37;44.20
63306;BME280;50735;52.060;1.248;2023-07-29T10:08:18;100237.71;;;19.94;43.87
63306;BME280;50735;52.060;1.248;2023-07-29T10:10:50;100237.92;;;19.78;44.20
63306;BME280;50735;52.060;1.248;2023-07-29T10:13:22;100242.93;;;19.63;45.02
63306;BME280;50735;52.060;1.248;2023-07-29T10:15:55;100246.26;;;19.47;45.41
63306;BME280;50735;52.060;1.248;2023-07-29T10:18:28;100248.56;;;19.98;44.98
63306;BME280;50735;52.060;1.248;2023-07-29T10:21:01;100246.26;;;19.90;45.50
63306;BME280;50735;52.060;1.248;2023-07-29T10:23:43;100255.67;;;19.52;45.68
63306;BME280;50735;52.060;1.248;2023-07-29T10:26:19;100252.66;;;19.39;46.77
63306;BME280;50735;52.060;1.248;2023-07-29T10:28:52;100250.06;;;19.20;47.16
63306;BME280;50735;52.060;1.248;2023-07-29T10:31:26;100253.96;;;19.25;47.44
63306;BME280;50735;52.060;1.248;2023-07-29T10:33:59;100253.40;;;19.58;47.61
63306;BME280;50735;52.060;1.248;2023-07-29T10:36:32;100256.35;;;19.20;47.18
63306;BME280;50735;52.060;1.248;2023-07-29T10:39:06;100254.83;;;19.46;47.54
63306;BME280;50735;52.060;1.248;2023-07-29T10:42:10;100258.26;;;19.59;47.60
63306;BME280;50735;52.060;1.248;2023-07-29T10:44:47;100261.88;;;19.79;47.52
63306;BME280;50735;52.060;1.248;2023-07-29T10:47:22;100257.99;;;19.30;47.91
63306;BME280;50735;52.060;1.248;2023-07-29T10:49:55;100261.88;;;19.17;47.35
63306;BME280;50735;52.060;1.248;2023-07-29T10:52:31;100264.29;;;18.98;48.09
63306;BME280;50735;52.060;1.248;2023-07-29T10:55:26;100269.33;;;18.74;48.28
63306;BME280;50735;52.060;1.248;2023-07-29T10:58:08;100267.85;;;18.63;48.28
63306;BME280;50735;52.060;1.248;2023-07-29T11:00:41;100269.95;;;18.45;48.77
63306;BME280;50735;52.060;1.248;2023-07-29T11:03:14;100271.24;;;18.42;49.10
63306;BME280;50735;52.060;1.248;2023-07-29T11:05:48;100266.73;;;18.51;49.34
63306;BME280;50735;52.060;1.248;2023-07-29T11:08:23;100263.51;;;18.42;49.53
63306;BME280;50735;52.060;1.248;2023-07-29T11:11:01;100269.32;;;18.69;50.20
63306;BME280;50735;52.060;1.248;2023-07-29T11:13:35;100268.00;;;18.65;50.40
63306;BME280;50735;52.060;1.248;2023-07-29T11:16:09;100267.39;;;18.63;50.83
63306;BME280;50735;52.060;1.248;2023-07-29T11:18:43;100269.51;;;18.47;51.80
63306;BME280;50735;52.060;1.248;2023-07-29T11:21:15;100259.48;;;18.55;52.84
63306;BME280;50735;52.060;1.248;2023-07-29T11:23:49;100262.46;;;17.56;52.32
63306;BME280;50735;52.060;1.248;2023-07-29T11:26:28;100259.76;;;17.38;52.64
63306;BME280;50735;52.060;1.248;2023-07-29T11:29:01;100261.45;;;17.21;52.92
63306;BME280;50735;52.060;1.248;2023-07-29T11:31:42;100260.39;;;17.55;51.26
63306;BME280;50735;52.060;1.248;2023-07-29T11:34:14;100250.52;;;18.10;48.91
63306;BME280;50735;52.060;1.248;2023-07-29T11:36:46;100250.85;;;18.56;46.61
63306;BME280;50735;52.060;1.248;2023-07-29T11:39:19;100243.84;;;19.13;45.17
63306;BME280;50735;52.060;1.248;2023-07-29T11:41:51;100240.99;;;19.53;43.69
63306;BME280;50735;52.060;1.248;2023-07-29T11:44:25;100238.40;;;20.19;43.10
63306;BME280;50735;52.060;1.248;2023-07-29T11:46:59;100241.96;;;20.26;41.18
63306;BME280;50735;52.060;1.248;2023-07-29T11:49:34;100237.79;;;20.69;40.84
63306;BME280;50735;52.060;1.248;2023-07-29T11:52:09;100234.96;;;21.07;39.36
63306;BME280;50735;52.060;1.248;2023-07-29T11:54:44;100230.00;;;21.23;39.32
63306;BME280;50735;52.060;1.248;2023-07-29T11:57:17;100230.39;;;21.75;38.64
63306;BME280;50735;52.060;1.248;2023-07-29T11:59:50;100224.73;;;22.31;38.45
63306;BME280;50735;52.060;1.248;2023-07-29T12:02:25;100222.85;;;22.23;38.06
63306;BME280;50735;52.060;1.248;2023-07-29T12:04:59;100213.10;;;22.48;37.60
63306;BME280;50735;52.060;1.248;2023-07-29T12:07:33;100204.14;;;22.83;37.12
63306;BME280;50735;52.060;1.248;2023-07-29T12:10:07;100196.74;;;22.87;36.28
63306;BME280;50735;52.060;1.248;2023-07-29T12:12:45;100196.46;;;22.78;36.30
63306;BME280;50735;52.060;1.248;2023-07-29T12:15:29;100194.39;;;22.95;36.53
63306;BME280;50735;52.060;1.248;2023-07-29T12:18:04;100194.94;;;23.62;35.33
63306;BME280;50735;52.060;1.248;2023-07-29T12:20:37;100196.10;;;23.71;34.78
63306;BME280;50735;52.060;1.248;2023-07-29T12:23:10;100195.19;;;23.79;34.95
63306;BME280;50735;52.060;1.248;2023-07-29T12:25:45;100197.11;;;23.47;34.25
63306;BME280;50735;52.060;1.248;2023-07-29T12:28:17;100199.48;;;23.44;34.11
63306;BME280;50735;52.060;1.248;2023-07-29T12:30:53;100195.21;;;23.13;34.68
63306;BME280;50735;52.060;1.248;2023-07-29T12:33:32;100193.97;;;23.21;33.93
63306;BME280;50735;52.060;1.248;2023-07-29T12:36:06;100188.88;;;23.66;34.46
63306;BME280;50735;52.060;1.248;2023-07-29T12:38:39;100189.76;;;23.81;33.41
63306;BME280;50735;52.060;1.248;2023-07-29T12:41:12;100189.76;;;23.62;33.39
63306;BME280;50735;52.060;1.248;2023-07-29T12:43:46;100185.83;;;23.35;33.78
63306;BME280;50735;52.060;1.248;2023-07-29T12:46:20;100195.17;;;22.68;32.66
63306;BME280;50735;52.060;1.248;2023-07-29T12:48:53;100193.79;;;22.38;33.21
63306;BME280;50735;52.060;1.248;2023-07-29T12:51:27;100194.51;;;21.93;33.16
63306;BME280;50735;52.060;1.248;2023-07-29T12:54:02;100200.81;;;21.90;33.85
63306;BME280;50735;52.060;1.248;2023-07-29T12:56:34;100207.39;;;21.45;34.78
63306;BME280;50735;52.060;1.248;2023-07-29T12:59:08;100210.82;;;21.27;36.09
63306;BME280;50735;52.060;1.248;2023-07-29T13:01:42;100208.24;;;20.75;36.81
63306;BME280;50735;52.060;1.248;2023-07-29T13:04:17;100210.29;;;20.77;37.25
63306;BME280;50735;52.060;1.248;2023-07-29T13:06:52;100208.11;;;20.76;36.40
63306;BME280;50735;52.060;1.248;2023-07-29T13:09:25;100207.14;;;20.54;35.29
63306;BME280;50735;52.060;1.248;2023-07-29T13:11:59;100204.63;;;20.90;34.66
63306;BME280;50735;52.060;1.248;2023-07-29T13:14:32;100200.94;;;21.09;34.36
63306;BME280;50735;52.060;1.248;2023-07-29T13:17:07;100211.26;;;21.06;33.75
63306;BME280;50735;52.060;1.248;2023-07-29T13:19:40;100212.46;;;21.07;34.01